sensor_id;sensor_type;location;lat;lon;timestamp;pressure;altitude;pressure_sealevel;temperature;humidity
70011;BME280;59543;37.950;-122.338;2023-07-13T00:00:46;101317.84;;;18.61;67.24
70011;BME280;59543;37.950;-122.338;2023-07-13T00:03:13;101309.41;;;18.70;67.43
70011;BME280;59543;37.950;-122.338;2023-07-13T00:05:40;101318.81;;;18.38;68.09
70011;BME280;59543;37.950;-122.338;2023-07-13T00:08:07;101319.41;;;18.78;67.25
70011;BME280;59543;37.950;-122.338;2023-07-13T00:10:38;101309.88;;;18.59;67.02
70011;BME280;59543;37.950;-122.338;2023-07-13T00:13:04;101310.75;;;18.75;67.90
70011;BME280;59543;37.950;-122.338;2023-07-13T00:15:30;101312.31;;;18.69;68.14
70011;BME280;59543;37.950;-122.338;2023-07-13T00:17:57;101306.22;;;18.67;67.78
70011;BME280;59543;37.950;-122.338;2023-07-13T00:20:24;101314.72;;;18.19;68.58
70011;BME280;59543;37.950;-122.338;2023-07-13T00:22:54;101311.50;;;18.01;70.22
70011;BME280;59543;37.950;-122.338;2023-07-13T00:25:21;101314.50;;;18.06;72.19
70011;BME280;59543;37.950;-122.338;2023-07-13T00:27:50;101316.25;;;17.84;71.85
70011;BME280;59543;37.950;-122.338;2023-07-13T00:30:17;101329.75;;;17.46;73.33
70011;BME280;59543;37.950;-122.338;2023-07-13T00:32:43;101326.84;;;17.17;73.06
70011;BME280;59543;37.950;-122.338;2023-07-13T00:35:10;101325.75;;;17.34;74.04
70011;BME280;59543;37.950;-122.338;2023-07-13T00:37:36;101324.75;;;17.27;74.54
70011;BME280;59543;37.950;-122.338;2023-07-13T00:40:04;101324.31;;;17.15;74.02
70011;BME280;59543;37.950;-122.338;2023-07-13T00:42:31;101327.88;;;17.16;73.63
70011;BME280;59543;37.950;-122.338;2023-07-13T00:45:05;101329.16;;;16.97;74.45
70011;BME280;59543;37.950;-122.338;2023-07-13T00:47:32;101331.47;;;17.08;74.48
70011;BME280;59543;37.950;-122.338;2023-07-13T00:49:58;101339.47;;;17.09;73.99
70011;BME280;59543;37.950;-122.338;2023-07-13T00:52:25;101321.44;;;17.08;74.06
70011;BME280;59543;37.950;-122.338;2023-07-13T00:54:52;101319.34;;;16.87;75.10
70011;BME280;59543;37.950;-122.338;2023-07-13T00:57:20;101326.34;;;16.65;74.94
70011;BME280;59543;37.950;-122.338;2023-07-13T00:59:58;101327.59;;;16.46;76.84
70011;BME280;59543;37.950;-122.338;2023-07-13T01:02:26;101317.59;;;16.39;76.17
70011;BME280;59543;37.950;-122.338;2023-07-13T01:04:56;101315.06;;;16.37;76.76
70011;BME280;59543;37.950;-122.338;2023-07-13T01:07:23;101319.97;;;16.42;76.91
70011;BME280;59543;37.950;-122.338;2023-07-13T01:09:49;101320.81;;;16.42;77.38
70011;BME280;59543;37.950;-122.338;2023-07-13T01:12:16;101318.78;;;16.44;76.88
70011;BME280;59543;37.950;-122.338;2023-07-13T01:14:42;101316.41;;;16.41;78.44
70011;BME280;59543;37.950;-122.338;2023-07-13T01:17:11;101318.41;;;16.64;76.63
70011;BME280;59543;37.950;-122.338;2023-07-13T01:19:44;101309.59;;;16.45;76.92
70011;BME280;59543;37.950;-122.338;2023-07-13T01:22:14;101311.50;;;16.37;77.06
70011;BME280;59543;37.950;-122.338;2023-07-13T01:24:44;101315.94;;;16.05;78.46
70011;BME280;59543;37.950;-122.338;2023-07-13T01:27:30;101307.63;;;15.82;79.38
70011;BME280;59543;37.950;-122.338;2023-07-13T01:29:57;101294.41;;;15.87;79.53
70011;BME280;59543;37.950;-122.338;2023-07-13T01:32:28;101308.19;;;15.86;79.58
70011;BME280;59543;37.950;-122.338;2023-07-13T01:34:56;101306.97;;;15.80;79.57
70011;BME280;59543;37.950;-122.338;2023-07-13T01:37:25;101302.72;;;16.02;78.82
70011;BME280;59543;37.950;-122.338;2023-07-13T01:39:51;101304.06;;;16.14;79.08
70011;BME280;59543;37.950;-122.338;2023-07-13T01:42:18;101307.47;;;16.08;78.03
70011;BME280;59543;37.950;-122.338;2023-07-13T01:44:46;101297.94;;;16.12;78.17
70011;BME280;59543;37.950;-122.338;2023-07-13T01:47:12;101308.16;;;16.02;78.73
70011;BME280;59543;37.950;-122.338;2023-07-13T01:49:38;101308.16;;;16.02;78.37
70011;BME280;59543;37.950;-122.338;2023-07-13T01:52:05;101304.09;;;15.90;79.49
70011;BME280;59543;37.950;-122.338;2023-07-13T01:54:31;101303.59;;;15.86;78.83
70011;BME280;59543;37.950;-122.338;2023-07-13T01:56:59;101314.25;;;15.71;78.87
70011;BME280;59543;37.950;-122.338;2023-07-13T01:59:26;101299.69;;;15.81;79.70
70011;BME280;59543;37.950;-122.338;2023-07-13T02:01:52;101308.16;;;16.02;78.53
70011;BME280;59543;37.950;-122.338;2023-07-13T02:04:18;101313.59;;;16.02;77.86
70011;BME280;59543;37.950;-122.338;2023-07-13T02:06:44;101316.13;;;15.87;77.83
70011;BME280;59543;37.950;-122.338;2023-07-13T02:09:11;101309.03;;;15.86;78.69
70011;BME280;59543;37.950;-122.338;2023-07-13T02:11:37;101324.25;;;16.20;76.84
70011;BME280;59543;37.950;-122.338;2023-07-13T02:14:03;101312.06;;;15.99;77.56
70011;BME280;59543;37.950;-122.338;2023-07-13T02:16:30;101313.19;;;16.30;75.83
70011;BME280;59543;37.950;-122.338;2023-07-13T02:18:57;101305.41;;;16.27;76.49
70011;BME280;59543;37.950;-122.338;2023-07-13T02:21:23;101315.13;;;16.68;74.69
70011;BME280;59543;37.950;-122.338;2023-07-13T02:23:50;101312.84;;;16.33;75.69
70011;BME280;59543;37.950;-122.338;2023-07-13T02:26:16;101307.13;;;16.28;76.07
70011;BME280;59543;37.950;-122.338;2023-07-13T02:28:42;101301.56;;;16.60;74.92
70011;BME280;59543;37.950;-122.338;2023-07-13T02:31:11;101301.28;;;16.47;74.57
70011;BME280;59543;37.950;-122.338;2023-07-13T02:33:38;101311.38;;;16.22;75.78
70011;BME280;59543;37.950;-122.338;2023-07-13T02:36:05;101304.72;;;16.33;76.02
70011;BME280;59543;37.950;-122.338;2023-07-13T02:38:32;101307.66;;;16.07;76.62
70011;BME280;59543;37.950;-122.338;2023-07-13T02:41:00;101297.31;;;15.77;78.40
70011;BME280;59543;37.950;-122.338;2023-07-13T02:43:27;101295.56;;;15.52;79.46
70011;BME280;59543;37.950;-122.338;2023-07-13T02:45:53;101296.75;;;15.41;80.52
70011;BME280;59543;37.950;-122.338;2023-07-13T02:48:20;101306.06;;;15.39;80.82
70011;BME280;59543;37.950;-122.338;2023-07-13T02:50:46;101311.28;;;15.40;81.27
70011;BME280;59543;37.950;-122.338;2023-07-13T02:53:12;101305.38;;;15.28;81.37
70011;BME280;59543;37.950;-122.338;2023-07-13T02:55:39;101300.91;;;15.11;82.15
70011;BME280;59543;37.950;-122.338;2023-07-13T02:58:07;101304.31;;;14.71;84.56
70011;BME280;59543;37.950;-122.338;2023-07-13T03:00:33;101306.59;;;14.83;83.92
70011;BME280;59543;37.950;-122.338;2023-07-13T03:03:00;101292.41;;;14.29;86.99
70011;BME280;59543;37.950;-122.338;2023-07-13T03:05:26;101307.56;;;14.22;88.09
70011;BME280;59543;37.950;-122.338;2023-07-13T03:07:52;101303.53;;;14.26;87.98
70011;BME280;59543;37.950;-122.338;2023-07-13T03:10:18;101306.31;;;14.08;89.42
70011;BME280;59543;37.950;-122.338;2023-07-13T03:12:45;101308.78;;;13.84;91.36
70011;BME280;59543;37.950;-122.338;2023-07-13T03:15:11;101309.72;;;13.57;93.03
70011;BME280;59543;37.950;-122.338;2023-07-13T03:17:38;101320.84;;;13.54;94.55
70011;BME280;59543;37.950;-122.338;2023-07-13T03:20:04;101312.69;;;13.45;94.49
70011;BME280;59543;37.950;-122.338;2023-07-13T03:22:31;101314.91;;;13.50;94.48
70011;BME280;59543;37.950;-122.338;2023-07-13T03:24:57;101326.47;;;13.24;95.97
70011;BME280;59543;37.950;-122.338;2023-07-13T03:27:23;101330.03;;;13.25;96.68
70011;BME280;59543;37.950;-122.338;2023-07-13T03:29:50;101332.56;;;13.26;96.91
70011;BME280;59543;37.950;-122.338;2023-07-13T03:32:16;101316.34;;;13.26;96.94
70011;BME280;59543;37.950;-122.338;2023-07-13T03:34:42;101330.91;;;13.16;97.81
70011;BME280;59543;37.950;-122.338;2023-07-13T03:37:08;101331.16;;;13.22;97.24
70011;BME280;59543;37.950;-122.338;2023-07-13T03:39:34;101328.16;;;12.98;98.76
70011;BME280;59543;37.950;-122.338;2023-07-13T03:42:01;101336.16;;;12.90;99.45
70011;BME280;59543;37.950;-122.338;2023-07-13T03:44:27;101330.53;;;12.83;100.00
70011;BME280;59543;37.950;-122.338;2023-07-13T03:46:53;101328.72;;;12.74;100.00
70011;BME280;59543;37.950;-122.338;2023-07-13T03:49:20;101326.44;;;12.69;100.00
70011;BME280;59543;37.950;-122.338;2023-07-13T03:51:46;101331.00;;;12.69;100.00
70011;BME280;59543;37.950;-122.338;2023-07-13T03:54:12;101334.53;;;12.69;100.00
70011;BME280;59543;37.950;-122.338;2023-07-13T03:56:38;101335.72;;;12.67;100.00
70011;BME280;59543;37.950;-122.338;2023-07-13T03:59:05;101338.72;;;12.64;100.00
70011;BME280;59543;37.950;-122.338;2023-07-13T04:01:31;101340.53;;;12.63;100.00
70011;BME280;59543;37.950;-122.338;2023-07-13T04:03:58;101335.84;;;12.65;100.00
70011;BME280;59543;37.950;-122.338;2023-07-13T04:06:28;101341.84;;;12.59;100.00
70011;BME280;59543;37.950;-122.338;2023-07-13T04:08:59;101345.50;;;12.68;100.00
70011;BME280;59543;37.950;-122.338;2023-07-13T04:11:28;101349.34;;;12.65;100.00
70011;BME280;59543;37.950;-122.338;2023-07-13T04:13:57;101355.00;;;12.72;100.00
70011;BME280;59543;37.950;-122.338;2023-07-13T04:16:24;101348.34;;;12.66;100.00
70011;BME280;59543;37.950;-122.338;2023-07-13T04:18:51;101358.19;;;12.48;100.00
70011;BME280;59543;37.950;-122.338;2023-07-13T04:21:28;101351.53;;;12.52;100.00
70011;BME280;59543;37.950;-122.338;2023-07-13T04:23:55;101356.47;;;12.56;100.00
70011;BME280;59543;37.950;-122.338;2023-07-13T04:26:21;101356.34;;;12.58;100.00
70011;BME280;59543;37.950;-122.338;2023-07-13T04:28:49;101365.00;;;12.62;100.00
70011;BME280;59543;37.950;-122.338;2023-07-13T04:31:15;101364.56;;;12.56;100.00
70011;BME280;59543;37.950;-122.338;2023-07-13T04:33:41;101368.69;;;12.51;100.00
70011;BME280;59543;37.950;-122.338;2023-07-13T04:36:09;101373.69;;;12.55;100.00
70011;BME280;59543;37.950;-122.338;2023-07-13T04:38:36;101373.38;;;12.58;100.00
70011;BME280;59543;37.950;-122.338;2023-07-13T04:41:05;101376.22;;;12.57;100.00
70011;BME280;59543;37.950;-122.338;2023-07-13T04:43:33;101387.59;;;12.61;100.00
70011;BME280;59543;37.950;-122.338;2023-07-13T04:46:08;101390.53;;;12.67;100.00
70011;BME280;59543;37.950;-122.338;2023-07-13T04:48:35;101395.66;;;12.70;100.00
70011;BME280;59543;37.950;-122.338;2023-07-13T04:51:04;101387.69;;;12.69;100.00
70011;BME280;59543;37.950;-122.338;2023-07-13T04:53:32;101400.59;;;12.75;100.00
70011;BME280;59543;37.950;-122.338;2023-07-13T04:56:00;101412.69;;;12.71;100.00
70011;BME280;59543;37.950;-122.338;2023-07-13T04:58:27;101403.88;;;12.69;100.00
70011;BME280;59543;37.950;-122.338;2023-07-13T05:00:59;101397.81;;;12.67;100.00
70011;BME280;59543;37.950;-122.338;2023-07-13T05:03:25;101397.63;;;12.68;100.00
70011;BME280;59543;37.950;-122.338;2023-07-13T05:05:58;101402.78;;;12.62;100.00
70011;BME280;59543;37.950;-122.338;2023-07-13T05:08:25;101411.28;;;12.67;100.00
70011;BME280;59543;37.950;-122.338;2023-07-13T05:10:52;101409.56;;;12.66;100.00
70011;BME280;59543;37.950;-122.338;2023-07-13T05:13:19;101411.69;;;12.72;100.00
70011;BME280;59543;37.950;-122.338;2023-07-13T05:15:46;101421.94;;;12.68;100.00
70011;BME280;59543;37.950;-122.338;2023-07-13T05:18:13;101417.66;;;12.66;100.00
70011;BME280;59543;37.950;-122.338;2023-07-13T05:20:39;101411.84;;;12.70;100.00
70011;BME280;59543;37.950;-122.338;2023-07-13T05:23:05;101420.91;;;12.69;100.00
70011;BME280;59543;37.950;-122.338;2023-07-13T05:25:32;101422.94;;;12.67;100.00
70011;BME280;59543;37.950;-122.338;2023-07-13T05:27:58;101425.44;;;12.78;100.00
70011;BME280;59543;37.950;-122.338;2023-07-13T05:30:24;101423.16;;;12.84;100.00
70011;BME280;59543;37.950;-122.338;2023-07-13T05:32:50;101425.59;;;12.77;100.00
70011;BME280;59543;37.950;-122.338;2023-07-13T05:35:17;101429.31;;;12.76;100.00
70011;BME280;59543;37.950;-122.338;2023-07-13T05:37:43;101427.00;;;12.81;100.00
70011;BME280;59543;37.950;-122.338;2023-07-13T05:40:09;101433.13;;;12.83;100.00
70011;BME280;59543;37.950;-122.338;2023-07-13T05:42:35;101430.16;;;12.76;100.00
70011;BME280;59543;37.950;-122.338;2023-07-13T05:45:02;101423.63;;;12.79;100.00
70011;BME280;59543;37.950;-122.338;2023-07-13T05:47:28;101425.44;;;12.88;100.00
70011;BME280;59543;37.950;-122.338;2023-07-13T05:49:55;101431.13;;;12.85;100.00
70011;BME280;59543;37.950;-122.338;2023-07-13T05:52:21;101434.22;;;12.90;100.00
70011;BME280;59543;37.950;-122.338;2023-07-13T05:54:47;101432.97;;;12.85;100.00
70011;BME280;59543;37.950;-122.338;2023-07-13T05:57:14;101427.59;;;12.85;100.00
70011;BME280;59543;37.950;-122.338;2023-07-13T05:59:40;101431.38;;;12.92;100.00
70011;BME280;59543;37.950;-122.338;2023-07-13T06:02:09;101429.41;;;12.94;100.00
70011;BME280;59543;37.950;-122.338;2023-07-13T06:04:36;101432.53;;;12.89;100.00
70011;BME280;59543;37.950;-122.338;2023-07-13T06:07:02;101430.94;;;12.96;100.00
70011;BME280;59543;37.950;-122.338;2023-07-13T06:09:28;101427.13;;;12.89;100.00
70011;BME280;59543;37.950;-122.338;2023-07-13T06:11:55;101424.00;;;12.84;100.00
70011;BME280;59543;37.950;-122.338;2023-07-13T06:14:21;101425.72;;;12.85;100.00
70011;BME280;59543;37.950;-122.338;2023-07-13T06:16:47;101429.41;;;12.94;100.00
70011;BME280;59543;37.950;-122.338;2023-07-13T06:19:13;101423.72;;;12.87;100.00
70011;BME280;59543;37.950;-122.338;2023-07-13T06:21:39;101417.16;;;12.90;100.00
70011;BME280;59543;37.950;-122.338;2023-07-13T06:24:08;101420.13;;;12.96;100.00
70011;BME280;59543;37.950;-122.338;2023-07-13T06:26:34;101425.44;;;12.88;100.00
70011;BME280;59543;37.950;-122.338;2023-07-13T06:29:00;101427.53;;;12.94;100.00
70011;BME280;59543;37.950;-122.338;2023-07-13T06:31:27;101425.81;;;13.03;100.00
70011;BME280;59543;37.950;-122.338;2023-07-13T06:33:53;101425.56;;;12.87;100.00
70011;BME280;59543;37.950;-122.338;2023-07-13T06:36:19;101422.44;;;12.91;100.00
70011;BME280;59543;37.950;-122.338;2023-07-13T06:38:45;101424.69;;;12.96;100.00
70011;BME280;59543;37.950;-122.338;2023-07-13T06:41:12;101420.84;;;12.98;100.00
70011;BME280;59543;37.950;-122.338;2023-07-13T06:43:38;101425.22;;;12.99;100.00
70011;BME280;59543;37.950;-122.338;2023-07-13T06:46:04;101427.28;;;12.88;100.00
70011;BME280;59543;37.950;-122.338;2023-07-13T06:48:30;101424.28;;;12.91;100.00
70011;BME280;59543;37.950;-122.338;2023-07-13T06:50:57;101419.47;;;12.85;100.00
70011;BME280;59543;37.950;-122.338;2023-07-13T06:53:23;101419.91;;;12.80;100.00
70011;BME280;59543;37.950;-122.338;2023-07-13T06:55:50;101422.03;;;12.86;100.00
70011;BME280;59543;37.950;-122.338;2023-07-13T06:58:18;101423.47;;;12.80;100.00
70011;BME280;59543;37.950;-122.338;2023-07-13T07:00:44;101420.91;;;12.79;100.00
70011;BME280;59543;37.950;-122.338;2023-07-13T07:03:11;101410.41;;;12.76;100.00
70011;BME280;59543;37.950;-122.338;2023-07-13T07:05:37;101411.81;;;12.80;100.00
70011;BME280;59543;37.950;-122.338;2023-07-13T07:08:04;101411.94;;;12.78;100.00
70011;BME280;59543;37.950;-122.338;2023-07-13T07:10:31;101413.78;;;12.78;100.00
70011;BME280;59543;37.950;-122.338;2023-07-13T07:12:57;101411.38;;;12.75;100.00
70011;BME280;59543;37.950;-122.338;2023-07-13T07:15:23;101410.72;;;12.73;100.00
70011;BME280;59543;37.950;-122.338;2023-07-13T07:17:50;101406.44;;;12.70;100.00
70011;BME280;59543;37.950;-122.338;2023-07-13T07:20:16;101405.47;;;12.62;100.00
70011;BME280;59543;37.950;-122.338;2023-07-13T07:22:42;101407.03;;;12.54;100.00
70011;BME280;59543;37.950;-122.338;2023-07-13T07:25:09;101405.75;;;12.58;100.00
70011;BME280;59543;37.950;-122.338;2023-07-13T07:27:35;101407.91;;;12.55;100.00
70011;BME280;59543;37.950;-122.338;2023-07-13T07:30:01;101406.19;;;12.54;100.00
70011;BME280;59543;37.950;-122.338;2023-07-13T07:32:29;101409.06;;;12.52;100.00
70011;BME280;59543;37.950;-122.338;2023-07-13T07:34:57;101408.03;;;12.53;100.00
70011;BME280;59543;37.950;-122.338;2023-07-13T07:37:24;101398.25;;;12.52;100.00
70011;BME280;59543;37.950;-122.338;2023-07-13T07:39:50;101388.84;;;12.56;100.00
70011;BME280;59543;37.950;-122.338;2023-07-13T07:42:17;101401.94;;;12.61;100.00
70011;BME280;59543;37.950;-122.338;2023-07-13T07:44:43;101398.19;;;12.72;100.00
70011;BME280;59543;37.950;-122.338;2023-07-13T07:47:09;101398.06;;;12.73;100.00
70011;BME280;59543;37.950;-122.338;2023-07-13T07:49:37;101391.66;;;12.74;100.00
70011;BME280;59543;37.950;-122.338;2023-07-13T07:52:04;101402.03;;;12.69;100.00
70011;BME280;59543;37.950;-122.338;2023-07-13T07:54:30;101396.91;;;12.76;100.00
70011;BME280;59543;37.950;-122.338;2023-07-13T07:56:57;101404.56;;;12.80;100.00
70011;BME280;59543;37.950;-122.338;2023-07-13T07:59:23;101401.31;;;12.77;100.00
70011;BME280;59543;37.950;-122.338;2023-07-13T08:01:49;101404.13;;;12.75;100.00
70011;BME280;59543;37.950;-122.338;2023-07-13T08:04:16;101399.63;;;12.76;100.00
70011;BME280;59543;37.950;-122.338;2023-07-13T08:06:42;101407.13;;;12.72;100.00
70011;BME280;59543;37.950;-122.338;2023-07-13T08:09:09;101406.00;;;12.75;100.00
70011;BME280;59543;37.950;-122.338;2023-07-13T08:11:35;101394.22;;;12.76;100.00
70011;BME280;59543;37.950;-122.338;2023-07-13T08:14:02;101395.06;;;12.76;100.00
70011;BME280;59543;37.950;-122.338;2023-07-13T08:16:28;101403.00;;;12.78;100.00
70011;BME280;59543;37.950;-122.338;2023-07-13T08:18:54;101410.53;;;12.74;100.00
70011;BME280;59543;37.950;-122.338;2023-07-13T08:21:20;101408.97;;;12.72;100.00
70011;BME280;59543;37.950;-122.338;2023-07-13T08:23:47;101404.59;;;12.71;100.00
70011;BME280;59543;37.950;-122.338;2023-07-13T08:26:13;101393.94;;;12.69;100.00
70011;BME280;59543;37.950;-122.338;2023-07-13T08:28:40;101398.44;;;12.78;100.00
70011;BME280;59543;37.950;-122.338;2023-07-13T08:31:07;101392.91;;;12.80;100.00
70011;BME280;59543;37.950;-122.338;2023-07-13T08:33:35;101397.31;;;12.81;100.00
70011;BME280;59543;37.950;-122.338;2023-07-13T08:36:02;101392.34;;;12.76;100.00
70011;BME280;59543;37.950;-122.338;2023-07-13T08:38:28;101399.31;;;12.79;100.00
70011;BME280;59543;37.950;-122.338;2023-07-13T08:40:56;101397.00;;;12.84;100.00
70011;BME280;59543;37.950;-122.338;2023-07-13T08:43:28;101394.88;;;12.88;100.00
70011;BME280;59543;37.950;-122.338;2023-07-13T08:46:11;101390.34;;;12.78;100.00
70011;BME280;59543;37.950;-122.338;2023-07-13T08:48:56;101392.03;;;12.89;100.00
70011;BME280;59543;37.950;-122.338;2023-07-13T08:51:50;101396.28;;;12.92;100.00
70011;BME280;59543;37.950;-122.338;2023-07-13T08:54:28;101395.44;;;12.81;100.00
70011;BME280;59543;37.950;-122.338;2023-07-13T08:56:58;101385.66;;;12.80;100.00
70011;BME280;59543;37.950;-122.338;2023-07-13T08:59:28;101392.63;;;12.83;100.00
70011;BME280;59543;37.950;-122.338;2023-07-13T09:05:03;101392.41;;;12.67;100.00
70011;BME280;59543;37.950;-122.338;2023-07-13T09:10:29;101393.09;;;12.69;100.00
70011;BME280;59543;37.950;-122.338;2023-07-13T09:13:21;101389.41;;;12.70;100.00
70011;BME280;59543;37.950;-122.338;2023-07-13T09:15:51;101404.59;;;12.71;100.00
70011;BME280;59543;37.950;-122.338;2023-07-13T09:21:02;101390.50;;;12.77;100.00
70011;BME280;59543;37.950;-122.338;2023-07-13T09:23:30;101399.03;;;12.82;100.00
70011;BME280;59543;37.950;-122.338;2023-07-13T09:26:06;101400.13;;;12.89;100.00
70011;BME280;59543;37.950;-122.338;2023-07-13T09:28:42;101394.59;;;12.91;100.00
70011;BME280;59543;37.950;-122.338;2023-07-13T09:31:28;101399.41;;;12.87;100.00
70011;BME280;59543;37.950;-122.338;2023-07-13T09:33:56;101393.88;;;12.89;100.00
70011;BME280;59543;37.950;-122.338;2023-07-13T09:36:29;101393.56;;;12.92;100.00
70011;BME280;59543;37.950;-122.338;2023-07-13T09:41:41;101395.88;;;12.87;100.00
70011;BME280;59543;37.950;-122.338;2023-07-13T09:44:15;101395.19;;;12.75;100.00
70011;BME280;59543;37.950;-122.338;2023-07-13T09:46:51;101391.59;;;12.84;100.00
70011;BME280;59543;37.950;-122.338;2023-07-13T09:49:18;101394.06;;;12.77;100.00
70011;BME280;59543;37.950;-122.338;2023-07-13T09:51:45;101402.03;;;12.69;100.00
70011;BME280;59543;37.950;-122.338;2023-07-13T09:54:22;101395.06;;;12.76;100.00
70011;BME280;59543;37.950;-122.338;2023-07-13T09:57:03;101394.50;;;12.73;100.00
70011;BME280;59543;37.950;-122.338;2023-07-13T09:59:33;101396.03;;;12.75;100.00
70011;BME280;59543;37.950;-122.338;2023-07-13T10:02:00;101400.47;;;12.76;100.00
70011;BME280;59543;37.950;-122.338;2023-07-13T10:04:32;101394.47;;;12.82;100.00
70011;BME280;59543;37.950;-122.338;2023-07-13T10:07:07;101398.72;;;12.85;100.00
70011;BME280;59543;37.950;-122.338;2023-07-13T10:09:34;101399.88;;;12.82;100.00
70011;BME280;59543;37.950;-122.338;2023-07-13T10:12:00;101396.34;;;12.72;100.00
70011;BME280;59543;37.950;-122.338;2023-07-13T10:14:29;101379.72;;;12.77;100.00
70011;BME280;59543;37.950;-122.338;2023-07-13T10:17:04;101385.22;;;12.85;100.00
70011;BME280;59543;37.950;-122.338;2023-07-13T10:19:32;101388.91;;;12.84;100.00
70011;BME280;59543;37.950;-122.338;2023-07-13T10:22:27;101385.22;;;12.85;100.00
70011;BME280;59543;37.950;-122.338;2023-07-13T10:24:55;101386.31;;;12.92;100.00
70011;BME280;59543;37.950;-122.338;2023-07-13T10:27:34;101381.94;;;12.81;100.00
70011;BME280;59543;37.950;-122.338;2023-07-13T10:32:39;101388.19;;;12.92;100.00
70011;BME280;59543;37.950;-122.338;2023-07-13T10:35:10;101375.56;;;12.82;100.00
70011;BME280;59543;37.950;-122.338;2023-07-13T10:40:27;101385.00;;;12.96;100.00
70011;BME280;59543;37.950;-122.338;2023-07-13T10:42:56;101382.78;;;12.92;100.00
70011;BME280;59543;37.950;-122.338;2023-07-13T10:45:24;101370.53;;;12.97;100.00
70011;BME280;59543;37.950;-122.338;2023-07-13T10:47:54;101376.78;;;12.98;100.00
70011;BME280;59543;37.950;-122.338;2023-07-13T10:50:24;101379.22;;;12.91;100.00
70011;BME280;59543;37.950;-122.338;2023-07-13T10:52:53;101381.78;;;12.93;100.00
70011;BME280;59543;37.950;-122.338;2023-07-13T10:58:40;101377.97;;;12.86;100.00
70011;BME280;59543;37.950;-122.338;2023-07-13T11:01:17;101381.53;;;12.86;100.00
70011;BME280;59543;37.950;-122.338;2023-07-13T11:03:49;101382.25;;;12.78;100.00
70011;BME280;59543;37.950;-122.338;2023-07-13T11:08:54;101390.47;;;12.87;100.00
70011;BME280;59543;37.950;-122.338;2023-07-13T11:11:31;101387.34;;;12.91;100.00
70011;BME280;59543;37.950;-122.338;2023-07-13T11:14:01;101393.03;;;12.88;100.00
70011;BME280;59543;37.950;-122.338;2023-07-13T11:16:45;101385.91;;;12.87;100.00
70011;BME280;59543;37.950;-122.338;2023-07-13T11:22:10;101385.25;;;12.75;100.00
70011;BME280;59543;37.950;-122.338;2023-07-13T11:24:57;101387.84;;;12.67;100.00
70011;BME280;59543;37.950;-122.338;2023-07-13T11:27:42;101386.41;;;12.73;100.00
70011;BME280;59543;37.950;-122.338;2023-07-13T11:33:27;101386.13;;;12.76;100.00
70011;BME280;59543;37.950;-122.338;2023-07-13T11:38:32;101387.38;;;12.72;100.00
70011;BME280;59543;37.950;-122.338;2023-07-13T11:41:02;101386.25;;;12.74;100.00
70011;BME280;59543;37.950;-122.338;2023-07-13T11:43:29;101384.00;;;12.70;100.00
70011;BME280;59543;37.950;-122.338;2023-07-13T11:45:56;101382.88;;;12.63;100.00
70011;BME280;59543;37.950;-122.338;2023-07-13T11:48:25;101386.59;;;12.62;100.00
70011;BME280;59543;37.950;-122.338;2023-07-13T11:50:58;101379.50;;;12.61;100.00
70011;BME280;59543;37.950;-122.338;2023-07-13T11:53:28;101384.72;;;12.62;100.00
70011;BME280;59543;37.950;-122.338;2023-07-13T11:55:56;101383.72;;;12.73;100.00
70011;BME280;59543;37.950;-122.338;2023-07-13T11:58:24;101383.13;;;12.69;100.00
70011;BME280;59543;37.950;-122.338;2023-07-13T12:00:52;101388.28;;;12.63;100.00
70011;BME280;59543;37.950;-122.338;2023-07-13T12:03:21;101388.69;;;12.68;100.00
70011;BME280;59543;37.950;-122.338;2023-07-13T12:06:26;101395.81;;;12.59;100.00
70011;BME280;59543;37.950;-122.338;2023-07-13T12:08:56;101393.97;;;12.59;100.00
70011;BME280;59543;37.950;-122.338;2023-07-13T12:11:23;101393.66;;;12.63;100.00
70011;BME280;59543;37.950;-122.338;2023-07-13T12:13:50;101399.78;;;12.65;100.00
70011;BME280;59543;37.950;-122.338;2023-07-13T12:16:29;101404.88;;;12.68;100.00
70011;BME280;59543;37.950;-122.338;2023-07-13T12:19:00;101409.28;;;12.69;100.00
70011;BME280;59543;37.950;-122.338;2023-07-13T12:21:33;101404.16;;;12.66;100.00
70011;BME280;59543;37.950;-122.338;2023-07-13T12:24:00;101404.59;;;12.71;100.00
70011;BME280;59543;37.950;-122.338;2023-07-13T12:26:30;101407.88;;;12.65;100.00
70011;BME280;59543;37.950;-122.338;2023-07-13T12:29:00;101408.72;;;12.65;100.00
70011;BME280;59543;37.950;-122.338;2023-07-13T12:34:17;101409.56;;;12.66;100.00
70011;BME280;59543;37.950;-122.338;2023-07-13T12:39:25;101410.16;;;12.59;100.00
70011;BME280;59543;37.950;-122.338;2023-07-13T12:41:54;101420.66;;;12.63;100.00
70011;BME280;59543;37.950;-122.338;2023-07-13T12:44:40;101421.97;;;12.58;100.00
70011;BME280;59543;37.950;-122.338;2023-07-13T12:47:12;101420.81;;;12.61;100.00
70011;BME280;59543;37.950;-122.338;2023-07-13T12:49:47;101420.28;;;12.57;100.00
70011;BME280;59543;37.950;-122.338;2023-07-13T12:52:23;101417.84;;;12.64;100.00
70011;BME280;59543;37.950;-122.338;2023-07-13T12:54:57;101415.00;;;12.56;100.00
70011;BME280;59543;37.950;-122.338;2023-07-13T12:57:25;101407.75;;;12.56;100.00